Time;durP1;ratioP1;P1;durP2;ratioP2;P2;SDS_P1;SDS_P2;PMS_P1;PMS_P2;Temp;Humidity;BMP_temperature;BMP_pressure;BME280_temperature;BME280_humidity;BME280_pressure;Samples;Min_cycle;Max_cycle;Signal;HPM_P1;HPM_P2
2022/03/21 00:01:16;;;;;;;34.35;25.55;;;;;;;;;;4972770;28;20367;-69
2022/03/21 00:03:42;;;;;;;31.88;25.10;;;;;;;;;;4972043;28;20498;-69
2022/03/21 00:06:08;;;;;;;37.78;26.33;;;;;;;;;;4967533;28;20046;-69
2022/03/21 00:08:35;;;;;;;33.22;26.13;;;;;;;;;;4961940;28;20500;-69
2022/03/21 00:11:01;;;;;;;37.72;27.33;;;;;;;;;;4974637;28;20509;-69
2022/03/21 00:13:27;;;;;;;38.35;27.63;;;;;;;;;;4975974;28;20446;-68
2022/03/21 00:15:54;;;;;;;36.08;27.00;;;;;;;;;;4975745;28;20039;-69
2022/03/21 00:18:20;;;;;;;35.42;25.48;;;;;;;;;;4976153;28;20050;-69
2022/03/21 00:20:47;;;;;;;39.17;26.65;;;;;;;;;;4975578;28;20050;-68
2022/03/21 00:23:14;;;;;;;38.28;27.85;;;;;;;;;;4969103;28;20121;-69
2022/03/21 00:25:40;;;;;;;38.97;29.15;;;;;;;;;;4966848;28;20075;-69
2022/03/21 00:28:07;;;;;;;39.65;29.20;;;;;;;;;;4974411;28;20481;-69
2022/03/21 00:30:34;;;;;;;39.63;30.98;;;;;;;;;;4974172;28;20130;-69
2022/03/21 00:33:00;;;;;;;42.15;29.48;;;;;;;;;;4972336;28;20401;-69
2022/03/21 00:35:26;;;;;;;40.38;29.42;;;;;;;;;;4974658;28;20046;-69
2022/03/21 00:37:53;;;;;;;39.92;29.80;;;;;;;;;;4974858;28;20050;-69
2022/03/21 00:40:19;;;;;;;38.20;29.38;;;;;;;;;;4973197;28;20201;-69
2022/03/21 00:42:46;;;;;;;39.22;29.08;;;;;;;;;;4966454;28;20051;-69
2022/03/21 00:45:14;;;;;;;38.53;28.77;;;;;;;;;;4968731;28;20059;-69
2022/03/21 00:47:40;;;;;;;41.55;29.92;;;;;;;;;;4975629;28;20057;-69
2022/03/21 00:50:07;;;;;;;35.40;27.30;;;;;;;;;;4970484;28;21376;-69
2022/03/21 00:52:38;;;;;;;35.58;27.70;;;;;;;;;;4968761;28;20449;-69
2022/03/21 00:55:05;;;;;;;39.72;29.85;;;;;;;;;;4972080;28;20046;-70
2022/03/21 00:57:31;;;;;;;37.17;29.02;;;;;;;;;;4983365;28;20061;-69
2022/03/21 00:59:57;;;;;;;40.05;29.50;;;;;;;;;;4979976;28;20047;-69
2022/03/21 01:02:23;;;;;;;38.22;29.15;;;;;;;;;;4977260;28;20390;-69
2022/03/21 01:04:49;;;;;;;41.00;30.05;;;;;;;;;;4975019;28;20047;-69
2022/03/21 01:07:16;;;;;;;40.58;31.00;;;;;;;;;;4974152;28;20039;-69
2022/03/21 01:09:42;;;;;;;40.65;31.73;;;;;;;;;;4973897;28;20055;-69
2022/03/21 01:12:09;;;;;;;44.63;32.35;;;;;;;;;;4974406;28;20038;-69
2022/03/21 01:14:35;;;;;;;45.92;33.10;;;;;;;;;;4972380;28;20062;-69
2022/03/21 01:17:01;;;;;;;45.30;34.15;;;;;;;;;;4974631;28;20050;-70
2022/03/21 01:19:31;;;;;;;51.65;38.55;;;;;;;;;;4972405;28;20508;-69
2022/03/21 01:21:57;;;;;;;50.35;36.67;;;;;;;;;;4973741;28;20406;-70
2022/03/21 01:24:24;;;;;;;52.42;38.10;;;;;;;;;;4974303;28;20035;-70
2022/03/21 01:26:50;;;;;;;54.42;38.88;;;;;;;;;;4973409;28;20482;-69
2022/03/21 01:29:16;;;;;;;50.95;39.53;;;;;;;;;;4974126;28;20498;-70
2022/03/21 01:31:42;;;;;;;46.42;35.47;;;;;;;;;;4970948;28;20110;-70
2022/03/21 01:34:08;;;;;;;43.35;34.00;;;;;;;;;;4974291;28;20046;-70
2022/03/21 01:36:34;;;;;;;43.63;32.22;;;;;;;;;;4974956;28;20054;-69
2022/03/21 01:39:00;;;;;;;40.55;29.33;;;;;;;;;;4972227;28;20134;-69
2022/03/21 01:41:26;;;;;;;39.72;29.30;;;;;;;;;;4964877;28;20045;-69
2022/03/21 01:43:59;;;;;;;39.33;28.40;;;;;;;;;;4973325;28;20039;-68
2022/03/21 01:46:25;;;;;;;38.83;26.77;;;;;;;;;;4973658;28;20134;-69
2022/03/21 01:48:51;;;;;;;33.78;26.00;;;;;;;;;;4974437;28;20046;-69
2022/03/21 01:51:17;;;;;;;33.40;25.92;;;;;;;;;;4973828;28;20039;-69
2022/03/21 01:56:28;;;;;;;31.88;24.27;;;;;;;;;;4956907;28;20102;-69
2022/03/21 01:58:54;;;;;;;33.83;25.98;;;;;;;;;;4969967;28;20046;-69
2022/03/21 02:01:20;;;;;;;37.58;27.73;;;;;;;;;;4964325;28;20039;-69
2022/03/21 02:03:46;;;;;;;33.50;25.95;;;;;;;;;;4971170;28;20097;-69
2022/03/21 02:06:13;;;;;;;37.22;27.48;;;;;;;;;;4972950;28;20042;-69
2022/03/21 02:08:39;;;;;;;34.03;25.60;;;;;;;;;;4972067;28;20039;-69
2022/03/21 02:11:06;;;;;;;36.58;25.67;;;;;;;;;;4971211;28;20069;-69
2022/03/21 02:13:32;;;;;;;34.15;24.63;;;;;;;;;;4963154;28;20093;-69
2022/03/21 02:15:59;;;;;;;37.42;26.33;;;;;;;;;;4971022;28;20053;-69
2022/03/21 02:18:25;;;;;;;34.10;25.83;;;;;;;;;;4955470;28;20043;-69
2022/03/21 02:20:52;;;;;;;32.55;24.70;;;;;;;;;;4973912;28;20082;-69
2022/03/21 02:23:22;;;;;;;35.85;25.05;;;;;;;;;;4971259;28;20458;-69
2022/03/21 02:25:51;;;;;;;34.00;25.13;;;;;;;;;;4970656;28;20035;-68
2022/03/21 02:28:18;;;;;;;30.48;23.67;;;;;;;;;;4972290;28;21083;-69
2022/03/21 02:30:49;;;;;;;33.00;24.40;;;;;;;;;;4972674;28;20518;-69
2022/03/21 02:33:19;;;;;;;36.03;25.98;;;;;;;;;;4972034;28;20046;-69
2022/03/21 02:35:49;;;;;;;38.13;26.50;;;;;;;;;;4965379;28;20039;-69
2022/03/21 02:38:16;;;;;;;37.20;25.92;;;;;;;;;;4974058;28;20047;-69
2022/03/21 02:40:42;;;;;;;33.53;25.00;;;;;;;;;;4972174;28;20409;-68
2022/03/21 02:43:09;;;;;;;36.13;25.85;;;;;;;;;;4970516;28;20053;-69
2022/03/21 02:45:35;;;;;;;35.00;25.80;;;;;;;;;;4973027;28;20051;-69
2022/03/21 02:48:01;;;;;;;38.65;26.05;;;;;;;;;;4972181;28;20053;-69
2022/03/21 02:50:41;;;;;;;36.97;25.02;;;;;;;;;;4972947;28;20118;-69
2022/03/21 02:53:08;;;;;;;37.92;26.90;;;;;;;;;;4972737;28;20038;-69
2022/03/21 02:55:34;;;;;;;35.72;26.23;;;;;;;;;;4971478;28;20039;-69
2022/03/21 02:58:00;;;;;;;33.95;25.77;;;;;;;;;;4973980;28;20047;-69
2022/03/21 03:00:26;;;;;;;36.50;26.00;;;;;;;;;;4972488;28;20057;-69
2022/03/21 03:02:52;;;;;;;36.88;27.67;;;;;;;;;;4971552;28;20053;-69
2022/03/21 03:05:18;;;;;;;40.50;26.35;;;;;;;;;;4970704;28;20478;-69
2022/03/21 03:07:44;;;;;;;36.53;27.70;;;;;;;;;;4963928;28;20055;-69
2022/03/21 03:10:10;;;;;;;39.40;28.35;;;;;;;;;;4972686;28;20042;-69
2022/03/21 03:12:36;;;;;;;38.80;27.15;;;;;;;;;;4971971;28;20569;-69
2022/03/21 03:15:02;;;;;;;40.13;27.77;;;;;;;;;;4955071;28;20043;-69
2022/03/21 03:17:28;;;;;;;35.78;25.77;;;;;;;;;;4985761;28;20096;-69
2022/03/21 03:19:54;;;;;;;35.30;26.65;;;;;;;;;;4985441;28;20046;-69
2022/03/21 03:22:21;;;;;;;36.92;26.48;;;;;;;;;;4974801;28;20081;-69
2022/03/21 03:24:48;;;;;;;35.55;25.70;;;;;;;;;;4971783;28;20046;-68
2022/03/21 03:27:14;;;;;;;44.15;26.98;;;;;;;;;;4970387;28;20039;-68
2022/03/21 03:29:40;;;;;;;34.25;26.58;;;;;;;;;;4972380;28;20069;-69
2022/03/21 03:32:06;;;;;;;39.15;25.70;;;;;;;;;;4972934;28;20065;-69
2022/03/21 03:34:33;;;;;;;36.75;26.50;;;;;;;;;;4971238;28;20043;-69
2022/03/21 03:36:59;;;;;;;33.97;26.02;;;;;;;;;;4973368;28;20129;-69
2022/03/21 03:39:25;;;;;;;40.60;26.95;;;;;;;;;;4970752;28;20078;-68
2022/03/21 03:41:51;;;;;;;37.25;25.17;;;;;;;;;;4972242;28;20116;-68
2022/03/21 03:44:18;;;;;;;35.38;26.10;;;;;;;;;;4973570;28;20097;-69
2022/03/21 03:46:47;;;;;;;36.05;25.35;;;;;;;;;;4959247;28;20062;-68
2022/03/21 03:49:13;;;;;;;35.90;25.80;;;;;;;;;;4976504;28;20586;-69
2022/03/21 03:51:39;;;;;;;34.30;24.85;;;;;;;;;;4974365;28;20501;-69
2022/03/21 03:54:05;;;;;;;36.42;25.92;;;;;;;;;;4972630;28;20051;-69
2022/03/21 03:56:31;;;;;;;34.28;24.85;;;;;;;;;;4976631;28;20520;-70
2022/03/21 03:58:57;;;;;;;37.90;24.83;;;;;;;;;;4976447;28;20071;-69
2022/03/21 04:01:23;;;;;;;36.50;24.77;;;;;;;;;;4974902;28;20046;-69
2022/03/21 04:03:49;;;;;;;36.92;24.83;;;;;;;;;;4972467;28;20051;-69
2022/03/21 04:06:17;;;;;;;37.85;25.10;;;;;;;;;;4976101;28;20125;-70
2022/03/21 04:08:44;;;;;;;34.55;24.40;;;;;;;;;;4975854;28;20047;-69
2022/03/21 04:11:10;;;;;;;31.65;25.05;;;;;;;;;;4976018;28;20101;-70
2022/03/21 04:13:36;;;;;;;36.83;25.98;;;;;;;;;;4974845;28;20046;-69
2022/03/21 04:16:02;;;;;;;39.00;25.33;;;;;;;;;;4975076;28;20086;-69
2022/03/21 04:18:28;;;;;;;34.45;25.13;;;;;;;;;;4975910;28;20064;-69
2022/03/21 04:20:54;;;;;;;37.25;25.33;;;;;;;;;;4973587;28;20490;-69
2022/03/21 04:23:20;;;;;;;38.53;25.13;;;;;;;;;;4971557;28;20449;-69
2022/03/21 04:25:47;;;;;;;37.03;24.85;;;;;;;;;;4969544;28;20042;-69
2022/03/21 04:28:14;;;;;;;34.97;25.08;;;;;;;;;;4974237;28;20061;-70
2022/03/21 04:30:41;;;;;;;35.80;25.15;;;;;;;;;;4972748;28;20050;-69
2022/03/21 04:33:09;;;;;;;34.28;24.60;;;;;;;;;;4975867;28;20383;-69
2022/03/21 04:35:36;;;;;;;37.97;25.48;;;;;;;;;;4975029;28;20054;-69
2022/03/21 04:38:02;;;;;;;34.85;24.52;;;;;;;;;;4972444;28;20125;-69
2022/03/21 04:40:28;;;;;;;34.22;24.38;;;;;;;;;;4974276;28;20482;-69
2022/03/21 04:42:54;;;;;;;34.50;24.23;;;;;;;;;;4971931;28;20047;-70
2022/03/21 04:45:20;;;;;;;38.75;25.35;;;;;;;;;;4975142;28;20044;-69
2022/03/21 04:47:47;;;;;;;36.03;23.83;;;;;;;;;;4975351;28;20133;-69
2022/03/21 04:50:13;;;;;;;38.38;24.88;;;;;;;;;;4975292;28;20046;-69
2022/03/21 04:52:40;;;;;;;37.17;24.27;;;;;;;;;;4973505;28;20438;-69
2022/03/21 04:55:09;;;;;;;33.58;24.63;;;;;;;;;;4973154;28;20161;-69
2022/03/21 04:57:36;;;;;;;34.22;22.98;;;;;;;;;;4975269;28;20089;-70
2022/03/21 05:00:03;;;;;;;37.08;24.85;;;;;;;;;;4973966;28;20050;-69
2022/03/21 05:02:30;;;;;;;32.17;23.33;;;;;;;;;;4973452;28;20545;-69
2022/03/21 05:04:56;;;;;;;35.38;24.60;;;;;;;;;;4974270;28;20078;-69
2022/03/21 05:07:22;;;;;;;34.15;24.38;;;;;;;;;;4972793;28;20097;-69
2022/03/21 05:09:50;;;;;;;34.40;24.23;;;;;;;;;;4967171;28;20457;-70
2022/03/21 05:12:16;;;;;;;33.95;23.30;;;;;;;;;;4973890;28;20039;-69
2022/03/21 05:14:42;;;;;;;36.70;24.33;;;;;;;;;;4973688;28;20051;-69
2022/03/21 05:17:10;;;;;;;34.20;24.60;;;;;;;;;;4974257;28;20101;-69
2022/03/21 05:19:37;;;;;;;36.10;25.40;;;;;;;;;;4973575;28;20510;-69
2022/03/21 05:22:04;;;;;;;35.45;24.58;;;;;;;;;;4970980;28;20054;-69
2022/03/21 05:32:45;;;;;;;41.53;24.92;;;;;;;;;;4975115;28;20043;-69
2022/03/21 05:37:55;;;;;;;35.53;24.17;;;;;;;;;;4973217;28;20054;-68
2022/03/21 05:40:41;;;;;;;33.60;23.85;;;;;;;;;;4973860;28;20453;-68
2022/03/21 05:43:07;;;;;;;37.78;25.90;;;;;;;;;;4972218;28;20546;-68
2022/03/21 05:45:33;;;;;;;38.03;25.48;;;;;;;;;;4972258;28;20081;-69
2022/03/21 05:50:44;;;;;;;35.78;25.05;;;;;;;;;;4985376;28;20504;-68
2022/03/21 05:53:10;;;;;;;37.83;25.13;;;;;;;;;;4973019;28;20109;-70
2022/03/21 05:55:37;;;;;;;36.65;24.40;;;;;;;;;;4974021;28;20110;-69
2022/03/21 05:58:03;;;;;;;35.28;24.20;;;;;;;;;;4973632;28;20050;-68
2022/03/21 06:00:29;;;;;;;37.67;24.55;;;;;;;;;;4970900;28;20099;-69
2022/03/21 06:02:55;;;;;;;37.95;24.77;;;;;;;;;;4974731;28;20051;-69
2022/03/21 06:05:23;;;;;;;38.38;25.40;;;;;;;;;;4970807;28;20585;-68
2022/03/21 06:07:50;;;;;;;32.22;23.55;;;;;;;;;;4973200;28;20051;-69
2022/03/21 06:10:16;;;;;;;34.38;23.48;;;;;;;;;;4974170;28;20049;-69
2022/03/21 06:12:42;;;;;;;36.95;24.90;;;;;;;;;;4975333;28;20077;-69
2022/03/21 06:15:09;;;;;;;37.10;24.90;;;;;;;;;;4973741;28;20487;-69
2022/03/21 06:17:38;;;;;;;38.58;24.73;;;;;;;;;;4971856;28;20047;-68
2022/03/21 06:20:15;;;;;;;34.70;24.52;;;;;;;;;;4972269;28;20410;-69
2022/03/21 06:22:41;;;;;;;35.08;24.13;;;;;;;;;;4980725;28;20058;-69
2022/03/21 06:25:07;;;;;;;36.92;25.25;;;;;;;;;;4971241;28;20129;-69
2022/03/21 06:27:34;;;;;;;38.75;25.25;;;;;;;;;;4955046;29;20035;-69
2022/03/21 06:30:01;;;;;;;33.10;23.85;;;;;;;;;;4969751;28;20442;-69
2022/03/21 06:32:27;;;;;;;30.10;22.73;;;;;;;;;;4973288;28;20086;-69
2022/03/21 06:34:53;;;;;;;33.55;21.83;;;;;;;;;;4970035;28;20086;-69
2022/03/21 06:37:20;;;;;;;33.97;22.40;;;;;;;;;;4973382;28;20043;-69
2022/03/21 06:39:45;;;;;;;30.80;22.58;;;;;;;;;;4968950;28;20047;-68
2022/03/21 06:42:14;;;;;;;27.42;21.27;;;;;;;;;;4972376;28;20046;-68
2022/03/21 06:44:40;;;;;;;28.48;21.00;;;;;;;;;;4971196;28;20108;-69
2022/03/21 06:47:06;;;;;;;28.42;20.88;;;;;;;;;;4973791;28;20493;-69
2022/03/21 06:49:32;;;;;;;25.58;19.13;;;;;;;;;;4972544;28;20043;-69
2022/03/21 06:51:59;;;;;;;26.13;19.05;;;;;;;;;;4973845;28;20039;-69
2022/03/21 06:54:24;;;;;;;25.20;19.50;;;;;;;;;;4972624;28;20059;-69
2022/03/21 06:56:50;;;;;;;25.08;19.48;;;;;;;;;;4973275;28;20134;-69
2022/03/21 06:59:16;;;;;;;23.70;18.50;;;;;;;;;;4968123;28;20043;-69
2022/03/21 07:01:42;;;;;;;22.02;18.67;;;;;;;;;;4972549;28;20104;-69
2022/03/21 07:04:08;;;;;;;22.55;18.10;;;;;;;;;;4970186;28;20043;-69
2022/03/21 07:06:34;;;;;;;23.08;18.70;;;;;;;;;;4972186;28;20039;-68
2022/03/21 07:09:00;;;;;;;24.60;18.58;;;;;;;;;;4970418;28;20049;-69
2022/03/21 07:11:26;;;;;;;23.83;17.98;;;;;;;;;;4972960;28;20137;-69
2022/03/21 07:13:52;;;;;;;24.15;18.52;;;;;;;;;;4971787;28;20492;-69
2022/03/21 07:16:18;;;;;;;26.92;19.65;;;;;;;;;;4963518;28;20051;-69
2022/03/21 07:18:45;;;;;;;23.13;18.90;;;;;;;;;;4971468;28;20533;-67
2022/03/21 07:21:13;;;;;;;26.25;19.77;;;;;;;;;;4977389;28;20046;-69
2022/03/21 07:23:39;;;;;;;25.30;19.08;;;;;;;;;;4976760;28;20046;-69
2022/03/21 07:26:05;;;;;;;23.15;18.98;;;;;;;;;;4977089;28;20038;-68
2022/03/21 07:28:31;;;;;;;24.23;19.52;;;;;;;;;;4977050;28;20046;-69
2022/03/21 07:30:57;;;;;;;23.40;18.83;;;;;;;;;;4977085;28;20149;-68
2022/03/21 07:33:24;;;;;;;23.08;18.30;;;;;;;;;;4977567;28;20049;-68
2022/03/21 07:35:50;;;;;;;26.83;20.02;;;;;;;;;;4971402;28;20502;-68
2022/03/21 07:38:19;;;;;;;25.63;18.60;;;;;;;;;;4976348;28;20049;-69
2022/03/21 07:40:48;;;;;;;23.95;19.02;;;;;;;;;;4974322;28;20054;-68
2022/03/21 07:43:14;;;;;;;23.67;18.75;;;;;;;;;;4976292;28;20106;-68
2022/03/21 07:48:27;;;;;;;25.83;18.00;;;;;;;;;;4977306;28;20106;-68
2022/03/21 07:50:54;;;;;;;25.15;18.48;;;;;;;;;;4976664;28;20094;-68
2022/03/21 07:53:20;;;;;;;23.05;17.90;;;;;;;;;;4976186;28;20062;-69
2022/03/21 07:55:46;;;;;;;27.15;18.23;;;;;;;;;;4974644;28;20078;-68
2022/03/21 07:58:12;;;;;;;23.27;16.42;;;;;;;;;;4975346;28;20057;-68
2022/03/21 08:00:41;;;;;;;21.17;17.50;;;;;;;;;;4975611;28;20493;-68
2022/03/21 08:03:09;;;;;;;23.92;17.60;;;;;;;;;;4984221;28;20409;-68
2022/03/21 08:05:35;;;;;;;21.67;16.65;;;;;;;;;;4976518;28;20047;-68
2022/03/21 08:08:01;;;;;;;19.33;16.17;;;;;;;;;;4973598;28;20502;-68
2022/03/21 08:10:29;;;;;;;22.58;16.58;;;;;;;;;;4973991;28;20046;-68
2022/03/21 08:12:56;;;;;;;20.73;15.88;;;;;;;;;;4975553;28;20062;-68
2022/03/21 08:15:22;;;;;;;21.95;15.02;;;;;;;;;;4974601;28;20050;-68
2022/03/21 08:17:52;;;;;;;20.33;15.93;;;;;;;;;;4974173;28;20133;-69
2022/03/21 08:20:22;;;;;;;20.30;15.43;;;;;;;;;;4974881;28;20509;-68
2022/03/21 08:22:48;;;;;;;18.30;15.73;;;;;;;;;;4975309;28;20572;-68
2022/03/21 08:25:18;;;;;;;22.83;15.90;;;;;;;;;;4974204;28;20043;-68
2022/03/21 08:27:45;;;;;;;24.63;16.98;;;;;;;;;;4973924;28;20569;-68
2022/03/21 08:30:15;;;;;;;19.42;14.38;;;;;;;;;;4975700;28;20117;-66
2022/03/21 08:32:48;;;;;;;21.92;15.00;;;;;;;;;;4979112;28;20047;-66
2022/03/21 08:35:15;;;;;;;21.70;14.93;;;;;;;;;;4977220;28;20046;-66
2022/03/21 08:37:41;;;;;;;24.15;16.25;;;;;;;;;;4975856;28;20127;-66
2022/03/21 08:40:07;;;;;;;21.27;14.90;;;;;;;;;;4974809;28;20043;-66
2022/03/21 08:42:33;;;;;;;22.30;17.45;;;;;;;;;;4975054;28;20121;-66
2022/03/21 08:44:59;;;;;;;24.02;16.80;;;;;;;;;;4973857;28;20534;-66
2022/03/21 08:47:26;;;;;;;22.27;17.10;;;;;;;;;;4977004;28;20083;-66
2022/03/21 08:49:52;;;;;;;22.27;15.98;;;;;;;;;;4977313;28;20540;-65
2022/03/21 08:52:19;;;;;;;22.73;16.17;;;;;;;;;;4979540;28;20057;-66
2022/03/21 08:54:45;;;;;;;22.73;16.42;;;;;;;;;;4944085;28;1043674;-66
2022/03/21 08:57:11;;;;;;;24.80;16.83;;;;;;;;;;4980326;28;20047;-66
2022/03/21 08:59:38;;;;;;;24.02;18.05;;;;;;;;;;4980909;28;20085;-66
2022/03/21 09:02:04;;;;;;;26.63;18.40;;;;;;;;;;4980871;28;20047;-66
2022/03/21 09:04:30;;;;;;;26.30;17.85;;;;;;;;;;4981809;28;20095;-66
2022/03/21 09:06:56;;;;;;;23.92;16.95;;;;;;;;;;4981105;28;20039;-66
2022/03/21 09:09:22;;;;;;;26.25;17.50;;;;;;;;;;4980052;28;20035;-67
2022/03/21 09:11:48;;;;;;;23.20;16.90;;;;;;;;;;4978994;28;20047;-66
2022/03/21 09:14:15;;;;;;;26.15;17.35;;;;;;;;;;4975863;28;20050;-66
2022/03/21 09:16:44;;;;;;;29.25;17.65;;;;;;;;;;4980529;28;20501;-66
2022/03/21 09:19:10;;;;;;;22.10;17.38;;;;;;;;;;4980980;28;20410;-66
2022/03/21 09:21:37;;;;;;;22.25;16.88;;;;;;;;;;4978977;28;20054;-66
2022/03/21 09:24:03;;;;;;;24.48;17.85;;;;;;;;;;4979126;28;20035;-66
2022/03/21 09:26:29;;;;;;;24.50;18.45;;;;;;;;;;4980709;28;20043;-66
2022/03/21 09:29:03;;;;;;;27.08;18.48;;;;;;;;;;4975741;28;20039;-66
2022/03/21 09:31:29;;;;;;;23.13;17.10;;;;;;;;;;4980428;28;20055;-66
2022/03/21 09:33:55;;;;;;;26.45;17.90;;;;;;;;;;4979634;28;20046;-65
2022/03/21 09:36:21;;;;;;;22.63;17.13;;;;;;;;;;4980819;28;20038;-66
2022/03/21 09:38:47;;;;;;;25.70;16.85;;;;;;;;;;4981092;28;20577;-66
2022/03/21 09:41:13;;;;;;;22.58;16.30;;;;;;;;;;4980330;28;20035;-66
2022/03/21 09:43:40;;;;;;;24.02;18.02;;;;;;;;;;4981750;28;20046;-66
2022/03/21 09:46:08;;;;;;;27.27;17.27;;;;;;;;;;4982495;28;20405;-66
2022/03/21 09:48:35;;;;;;;25.58;17.13;;;;;;;;;;4986819;28;20055;-66
2022/03/21 09:51:04;;;;;;;25.23;17.17;;;;;;;;;;4980454;28;20402;-66
2022/03/21 09:53:30;;;;;;;26.77;18.48;;;;;;;;;;4980525;28;20093;-66
2022/03/21 09:55:57;;;;;;;24.58;17.98;;;;;;;;;;4975818;28;20046;-65
2022/03/21 09:58:23;;;;;;;24.13;17.80;;;;;;;;;;4978832;28;20390;-66
2022/03/21 10:00:49;;;;;;;32.78;19.65;;;;;;;;;;4978322;28;20109;-67
2022/03/21 10:03:16;;;;;;;27.42;18.10;;;;;;;;;;4976607;28;20046;-65
2022/03/21 10:05:46;;;;;;;27.65;19.15;;;;;;;;;;4976476;28;20069;-66
2022/03/21 10:08:12;;;;;;;99.68;22.60;;;;;;;;;;4961403;28;20066;-69
2022/03/21 10:10:39;;;;;;;71.57;21.52;;;;;;;;;;4978743;28;20051;-67
2022/03/21 10:13:09;;;;;;;33.63;20.98;;;;;;;;;;4979497;28;20054;-66
2022/03/21 10:15:35;;;;;;;38.92;21.45;;;;;;;;;;4970292;28;20057;-66
2022/03/21 10:18:08;;;;;;;38.13;21.15;;;;;;;;;;4979745;28;20050;-66
2022/03/21 10:20:35;;;;;;;28.27;20.52;;;;;;;;;;4977938;28;20046;-67
2022/03/21 10:23:15;;;;;;;31.90;20.98;;;;;;;;;;4972958;28;20074;-67
2022/03/21 10:25:41;;;;;;;26.60;20.27;;;;;;;;;;4977444;28;20406;-66
2022/03/21 10:28:07;;;;;;;27.67;20.52;;;;;;;;;;4977768;28;20031;-66
2022/03/21 10:30:33;;;;;;;26.42;20.33;;;;;;;;;;4978735;28;20065;-67
2022/03/21 10:33:00;;;;;;;29.77;21.00;;;;;;;;;;4977125;28;20030;-66
2022/03/21 10:35:28;;;;;;;28.55;21.13;;;;;;;;;;4971470;28;20043;-66
2022/03/21 10:37:54;;;;;;;33.45;21.42;;;;;;;;;;4980959;28;20039;-67
2022/03/21 10:40:24;;;;;;;28.38;20.55;;;;;;;;;;4981750;28;20058;-67
2022/03/21 10:42:59;;;;;;;29.90;20.53;;;;;;;;;;4982176;28;20042;-67
2022/03/21 10:45:37;;;;;;;31.30;20.52;;;;;;;;;;4980620;28;20310;-67
2022/03/21 10:48:07;;;;;;;31.52;21.88;;;;;;;;;;4982521;28;20038;-67
2022/03/21 10:50:44;;;;;;;27.73;21.17;;;;;;;;;;4982011;28;20047;-67
2022/03/21 10:53:11;;;;;;;27.33;20.42;;;;;;;;;;4981468;28;20077;-67
2022/03/21 10:55:38;;;;;;;28.35;21.42;;;;;;;;;;4981426;28;20054;-66
2022/03/21 10:58:04;;;;;;;28.58;20.75;;;;;;;;;;4980060;28;20053;-66
2022/03/21 11:00:30;;;;;;;32.20;22.50;;;;;;;;;;4980926;28;20093;-67
2022/03/21 11:02:57;;;;;;;30.90;22.77;;;;;;;;;;4977421;28;20074;-67
2022/03/21 11:05:24;;;;;;;31.83;22.48;;;;;;;;;;4977583;28;20110;-66
2022/03/21 11:07:50;;;;;;;29.42;21.48;;;;;;;;;;4970479;28;20058;-67
2022/03/21 11:10:18;;;;;;;31.67;22.25;;;;;;;;;;4971270;28;20039;-67
2022/03/21 11:12:45;;;;;;;35.63;22.35;;;;;;;;;;4976870;28;20042;-67
2022/03/21 11:15:11;;;;;;;32.25;21.58;;;;;;;;;;4976150;28;20042;-67
2022/03/21 11:17:38;;;;;;;33.72;22.80;;;;;;;;;;4978352;28;20077;-66
2022/03/21 11:20:05;;;;;;;29.15;21.73;;;;;;;;;;4978116;28;20117;-67
2022/03/21 11:22:33;;;;;;;30.52;21.67;;;;;;;;;;4977487;28;20049;-66
2022/03/21 11:25:17;;;;;;;30.35;22.08;;;;;;;;;;4960456;29;20075;-66
2022/03/21 11:28:02;;;;;;;32.50;21.45;;;;;;;;;;4962025;28;21456;-66
2022/03/21 11:30:31;;;;;;;29.65;21.63;;;;;;;;;;4980994;28;20486;-66
2022/03/21 11:32:57;;;;;;;29.42;21.50;;;;;;;;;;4984603;28;20050;-66
2022/03/21 11:35:25;;;;;;;30.30;22.58;;;;;;;;;;4992072;28;20057;-66
2022/03/21 11:37:53;;;;;;;39.17;23.02;;;;;;;;;;4980744;28;20043;-67
2022/03/21 11:40:35;;;;;;;33.08;22.75;;;;;;;;;;4980876;28;20494;-67
2022/03/21 11:43:21;;;;;;;30.08;22.63;;;;;;;;;;4980650;28;20109;-67
2022/03/21 11:45:53;;;;;;;32.72;23.30;;;;;;;;;;4983060;28;20043;-67
2022/03/21 11:48:19;;;;;;;31.60;23.15;;;;;;;;;;4977670;28;20050;-67
2022/03/21 11:50:45;;;;;;;32.78;23.77;;;;;;;;;;4965901;28;20109;-67
2022/03/21 11:53:13;;;;;;;32.17;22.58;;;;;;;;;;4980369;28;20517;-67
2022/03/21 11:55:41;;;;;;;29.17;21.80;;;;;;;;;;4978075;28;20106;-67
2022/03/21 11:58:30;;;;;;;34.40;23.63;;;;;;;;;;4979271;28;20405;-67
2022/03/21 12:01:06;;;;;;;34.67;23.70;;;;;;;;;;4960865;28;20071;-67
2022/03/21 12:03:33;;;;;;;31.52;22.42;;;;;;;;;;4981699;28;20082;-67
2022/03/21 12:05:59;;;;;;;31.45;21.85;;;;;;;;;;4979747;28;20051;-67
2022/03/21 12:08:36;;;;;;;32.65;23.60;;;;;;;;;;4985127;28;20051;-67
2022/03/21 12:11:02;;;;;;;32.88;23.48;;;;;;;;;;4985532;28;20061;-67
2022/03/21 12:13:41;;;;;;;27.83;22.88;;;;;;;;;;4985644;28;20038;-67
2022/03/21 12:16:20;;;;;;;33.72;23.83;;;;;;;;;;4983501;28;20097;-67
2022/03/21 12:19:00;;;;;;;33.28;23.70;;;;;;;;;;4982865;28;20051;-66
2022/03/21 12:21:26;;;;;;;30.45;24.15;;;;;;;;;;4983986;28;20117;-67
2022/03/21 12:24:11;;;;;;;31.30;22.98;;;;;;;;;;4987203;28;20078;-67
2022/03/21 12:26:37;;;;;;;31.50;23.05;;;;;;;;;;4987563;28;20046;-67
2022/03/21 12:29:32;;;;;;;30.08;23.40;;;;;;;;;;4991343;28;20038;-66
2022/03/21 12:32:16;;;;;;;34.42;23.60;;;;;;;;;;4985148;28;20141;-67
2022/03/21 12:34:44;;;;;;;34.08;24.30;;;;;;;;;;4987638;28;20043;-68
2022/03/21 12:37:24;;;;;;;30.58;24.10;;;;;;;;;;4989712;28;20058;-68
2022/03/21 12:39:50;;;;;;;34.60;24.65;;;;;;;;;;4990221;28;20564;-67
2022/03/21 12:42:20;;;;;;;32.58;23.02;;;;;;;;;;4990934;28;20103;-67
2022/03/21 12:44:46;;;;;;;30.27;23.13;;;;;;;;;;4989799;28;20046;-68
2022/03/21 12:47:12;;;;;;;35.03;24.23;;;;;;;;;;4988473;28;20565;-68
2022/03/21 12:49:50;;;;;;;36.88;24.20;;;;;;;;;;4988538;28;20042;-68
2022/03/21 12:52:26;;;;;;;35.60;24.17;;;;;;;;;;4989957;28;20058;-67
2022/03/21 12:54:53;;;;;;;33.38;24.92;;;;;;;;;;4990776;28;20085;-67
2022/03/21 12:57:19;;;;;;;35.63;25.73;;;;;;;;;;4988754;28;20058;-67
2022/03/21 12:59:45;;;;;;;35.78;24.60;;;;;;;;;;4990133;28;20050;-66
2022/03/21 13:02:27;;;;;;;35.35;25.00;;;;;;;;;;4987741;28;20051;-66
2022/03/21 13:10:35;;;;;;;33.42;24.10;;;;;;;;;;4985930;28;20050;-67
2022/03/21 13:13:02;;;;;;;29.73;23.60;;;;;;;;;;4988202;28;20568;-67
2022/03/21 13:15:29;;;;;;;31.98;24.02;;;;;;;;;;4985110;28;20054;-67
2022/03/21 13:18:01;;;;;;;30.65;22.73;;;;;;;;;;4987444;28;20043;-67
2022/03/21 13:20:31;;;;;;;31.95;24.38;;;;;;;;;;4988141;28;20057;-67
2022/03/21 13:23:01;;;;;;;30.88;23.50;;;;;;;;;;4986860;28;20050;-68
2022/03/21 13:25:28;;;;;;;34.08;24.52;;;;;;;;;;4970012;29;20050;-68
2022/03/21 13:28:14;;;;;;;30.10;24.08;;;;;;;;;;4982540;28;20051;-67
2022/03/21 13:30:56;;;;;;;34.17;24.67;;;;;;;;;;4968467;28;20055;-68
2022/03/21 13:33:27;;;;;;;34.03;23.73;;;;;;;;;;4976441;28;20038;-68
2022/03/21 13:35:53;;;;;;;;;;;;;;;;;;4983471;28;20050;-67
2022/03/21 13:38:22;;;;;;;33.15;24.75;;;;;;;;;;4982942;28;19928;-68
2022/03/21 13:40:48;;;;;;;30.85;24.27;;;;;;;;;;4980102;28;20043;-68
2022/03/21 13:43:15;;;;;;;32.17;23.52;;;;;;;;;;4977700;28;20497;-68
2022/03/21 13:45:41;;;;;;;31.80;24.08;;;;;;;;;;4975382;28;20109;-68
2022/03/21 13:48:07;;;;;;;31.40;23.17;;;;;;;;;;4984468;28;20066;-68
2022/03/21 13:50:38;;;;;;;30.52;22.52;;;;;;;;;;4985000;28;20047;-67
2022/03/21 13:53:23;;;;;;;31.02;23.35;;;;;;;;;;4996293;28;20714;-67
2022/03/21 13:55:51;;;;;;;32.72;22.85;;;;;;;;;;4978511;28;20054;-68
2022/03/21 13:58:27;;;;;;;29.25;21.80;;;;;;;;;;4985144;28;20047;-67
2022/03/21 14:00:53;;;;;;;30.42;22.02;;;;;;;;;;4981200;28;20067;-67
2022/03/21 14:03:33;;;;;;;30.40;22.50;;;;;;;;;;4980215;28;20391;-67
2022/03/21 14:05:59;;;;;;;28.80;21.55;;;;;;;;;;4983403;28;20050;-67
2022/03/21 14:08:25;;;;;;;29.60;21.55;;;;;;;;;;4977743;28;20446;-70
2022/03/21 14:10:52;;;;;;;30.85;22.13;;;;;;;;;;4979707;28;20045;-68
2022/03/21 14:13:22;;;;;;;29.35;22.08;;;;;;;;;;4977475;28;20070;-67
2022/03/21 14:15:49;;;;;;;28.00;21.65;;;;;;;;;;4977068;28;20105;-70
2022/03/21 14:18:18;;;;;;;32.38;22.60;;;;;;;;;;4977987;28;20109;-71
2022/03/21 14:20:44;;;;;;;35.90;23.42;;;;;;;;;;4979263;28;20046;-71
2022/03/21 14:23:10;;;;;;;29.73;21.92;;;;;;;;;;4976822;28;20050;-72
2022/03/21 14:28:21;;;;;;;29.65;23.23;;;;;;;;;;4975232;28;20046;-68
2022/03/21 14:30:47;;;;;;;33.63;23.55;;;;;;;;;;4971971;28;20053;-70
2022/03/21 14:33:13;;;;;;;30.33;23.17;;;;;;;;;;4966449;28;20046;-70
2022/03/21 14:35:39;;;;;;;31.50;23.00;;;;;;;;;;4971880;28;20054;-70
2022/03/21 14:38:05;;;;;;;35.65;22.90;;;;;;;;;;4972335;28;20085;-70
2022/03/21 14:40:31;;;;;;;35.35;23.02;;;;;;;;;;4974031;28;20118;-70
2022/03/21 14:42:57;;;;;;;28.77;22.10;;;;;;;;;;4972368;28;20118;-70
2022/03/21 14:45:24;;;;;;;32.20;22.52;;;;;;;;;;4972295;28;20038;-69
2022/03/21 14:47:50;;;;;;;31.60;24.05;;;;;;;;;;4969974;28;20086;-70